Weather at Hammerfest Airport

Public forecast

Using degrees Celsius for public forecast. Weather courtesy of forecast.io.

Current aviation weather report (METAR) for Hammerfest Airport

Report is more than 6 hours old.

2022/11/14 15:20 (retrieved 2 years ago)

ENHF 141520Z 34011KT 9999 -SHRA FEW011 SCT018 BKN024 04/02 Q1019 RMK WIND 1254FT 33023KT

Closest aviation forecast (TAF) to Hammerfest Airport

Forecast is more than 12 hours old.

Closest forecast is Lakselv Airport, Banak, 45.1 nm (83.6 km) SE.

2023/02/22 18:36 (retrieved 1 year ago)

TAF ENNA 221700Z 2218/2318 18020KT CAVOK TEMPO 2218/2306 18030G45KT BLSN TEMPO 2302/2309 2500 -SN VV010 TEMPO 2306/2318 18020G35KT BLSN